Terminal Aerodrome Forecast
Issued by NWS

Home | Current Version | Previous Version | Text Only | Print | Product List | Glossary On
Versions: 1 2 3 4 5 6 7 8 9 10 11 12
802
FTUS43 KSGF 140538
TAFJLN
TAF
KJLN 140538Z 1406/1506 14012KT P6SM OVC050
     FM140900 15010KT P6SM OVC020
      TEMPO 1409/1413 4SM -RADZ BKN012 OVC020
     FM141300 16005KT 3SM -RADZ BKN008 OVC012
     FM141600 21008KT P6SM OVC010
     FM142000 25005KT P6SM BKN020
     FM142200 21004KT P6SM SCT020 BKN200=

USA.gov is the U.S. government's official web portal to all federal, state and local government web resources and services.